Time;durP1;ratioP1;P1;durP2;ratioP2;P2;SDS_P1;SDS_P2;PMS_P1;PMS_P2;Temp;Humidity;BMP_temperature;BMP_pressure;BME280_temperature;BME280_humidity;BME280_pressure;Samples;Min_cycle;Max_cycle;Signal;HPM_P1;HPM_P2
2023/04/29 00:02:01;;;;;;;6.93;5.20;;;18.20;90.30;;;;;;7380965;19;20239;-70
2023/04/29 00:04:30;;;;;;;7.68;5.63;;;18.20;90.20;;;;;;7382219;19;20240;-70
2023/04/29 00:06:58;;;;;;;10.02;5.57;;;18.20;90.20;;;;;;7384658;19;20015;-69
2023/04/29 00:09:27;;;;;;;7.95;5.80;;;18.20;90.20;;;;;;7385094;19;20006;-70
2023/04/29 00:11:56;;;;;;;8.25;5.95;;;18.30;90.20;;;;;;7402573;19;20010;-70
2023/04/29 00:14:24;;;;;;;10.73;5.70;;;18.20;90.20;;;;;;7381829;19;20236;-70
2023/04/29 00:16:56;;;;;;;12.25;5.40;;;18.20;90.20;;;;;;7381114;19;20020;-70
2023/04/29 00:19:24;;;;;;;9.48;5.90;;;18.20;90.20;;;;;;7381226;19;20422;-70
2023/04/29 00:21:53;;;;;;;8.95;6.22;;;18.30;90.10;;;;;;7380617;19;20406;-70
2023/04/29 00:24:22;;;;;;;10.20;5.95;;;18.30;90.00;;;;;;7381857;19;20024;-70
2023/04/29 00:26:50;;;;;;;9.15;5.45;;;18.30;90.10;;;;;;7401818;19;20010;-70
2023/04/29 00:29:19;;;;;;;8.07;5.95;;;18.30;90.00;;;;;;7381783;19;20425;-71
2023/04/29 00:31:48;;;;;;;13.25;5.53;;;18.30;89.80;;;;;;7380669;19;20040;-71
2023/04/29 00:34:19;;;;;;;10.18;5.32;;;18.30;89.80;;;;;;7380444;19;20344;-71
2023/04/29 00:36:48;;;;;;;6.53;4.90;;;18.20;89.90;;;;;;7380484;19;20006;-71
2023/04/29 00:39:17;;;;;;;12.20;4.80;;;18.30;89.60;;;;;;7380930;19;20007;-71
2023/04/29 00:41:46;;;;;;;8.02;5.25;;;18.20;89.60;;;;;;7402133;19;20011;-71
2023/04/29 00:44:14;;;;;;;8.00;5.90;;;18.20;89.50;;;;;;7380241;19;20023;-71
2023/04/29 00:46:43;;;;;;;12.23;5.40;;;18.20;89.40;;;;;;7379369;19;20006;-71
2023/04/29 00:49:15;;;;;;;8.40;5.57;;;18.20;89.50;;;;;;7379938;19;20006;-71
2023/04/29 00:51:47;;;;;;;7.75;5.53;;;18.20;89.80;;;;;;7380363;19;20010;-70
2023/04/29 00:54:16;;;;;;;7.85;5.63;;;18.20;89.70;;;;;;7378109;19;20014;-71
2023/04/29 00:56:47;;;;;;;10.55;5.05;;;18.20;89.30;;;;;;7400290;19;20030;-71
2023/04/29 00:59:16;;;;;;;7.93;5.10;;;18.10;89.40;;;;;;7387393;19;20009;-71
2023/04/29 01:01:45;;;;;;;9.25;5.32;;;18.10;89.50;;;;;;7387966;19;20013;-70
2023/04/29 01:04:14;;;;;;;6.88;5.60;;;18.10;89.20;;;;;;7387823;19;20006;-70
2023/04/29 01:06:59;;;;;;;8.70;5.18;;;18.10;89.30;;;;;;7388292;19;20013;-70
2023/04/29 01:09:49;;;;;;;10.93;6.15;;;18.10;90.00;;;;;;7387927;19;20303;-70
2023/04/29 01:12:25;;;;;;;12.18;6.03;;;18.00;89.00;;;;;;7385171;19;20367;-70
2023/04/29 01:15:06;;;;;;;7.22;4.88;;;18.00;88.70;;;;;;7409480;19;20090;-70
2023/04/29 01:17:42;;;;;;;10.50;5.93;;;18.00;88.80;;;;;;7385999;19;20007;-71
2023/04/29 01:20:12;;;;;;;9.60;5.50;;;18.00;88.60;;;;;;7385813;19;20014;-70
2023/04/29 01:22:43;;;;;;;8.50;5.78;;;17.90;89.30;;;;;;7384629;19;20024;-70
2023/04/29 01:25:15;;;;;;;6.80;4.72;;;17.90;88.10;;;;;;7384964;19;20024;-70
2023/04/29 01:27:45;;;;;;;;;;;17.80;88.70;;;;;;7385217;19;20295;-70
2023/04/29 01:30:27;;;;;;;8.48;5.82;;;17.80;89.00;;;;;;7383692;19;19928;-70
2023/04/29 01:33:03;;;;;;;11.38;5.60;;;17.70;89.00;;;;;;7408033;19;20002;-71
2023/04/29 01:35:42;;;;;;;7.70;5.30;;;17.70;88.40;;;;;;7384485;19;19999;-71
2023/04/29 01:38:22;;;;;;;16.00;5.50;;;17.70;88.60;;;;;;7385376;19;20020;-71
2023/04/29 01:41:14;;;;;;;11.35;5.70;;;17.70;88.60;;;;;;7385144;19;20022;-70
2023/04/29 01:43:44;;;;;;;8.73;4.60;;;17.70;88.30;;;;;;7385060;19;20007;-70
2023/04/29 01:46:17;;;;;;;6.40;5.18;;;17.70;87.80;;;;;;7385373;19;20020;-69
2023/04/29 01:48:47;;;;;;;8.57;5.25;;;17.60;88.10;;;;;;7384188;19;20007;-69
2023/04/29 01:51:16;;;;;;;9.13;5.07;;;17.60;88.50;;;;;;7385691;19;20380;-70
2023/04/29 01:53:45;;;;;;;10.45;5.60;;;17.50;88.70;;;;;;7407204;19;20011;-71
2023/04/29 01:56:16;;;;;;;10.13;5.72;;;17.40;88.60;;;;;;7383504;19;20283;-71
2023/04/29 01:58:45;;;;;;;11.77;5.00;;;17.50;88.40;;;;;;7384365;19;20006;-71
2023/04/29 02:01:14;;;;;;;10.57;4.85;;;17.50;88.70;;;;;;7384724;19;20074;-70
2023/04/29 02:03:42;;;;;;;9.02;5.00;;;17.40;88.70;;;;;;7385405;19;20007;-70
2023/04/29 02:06:11;;;;;;;9.18;5.43;;;17.50;89.40;;;;;;7383350;19;20003;-70
2023/04/29 02:08:40;;;;;;;7.03;4.60;;;17.50;88.40;;;;;;7402618;19;20067;-70
2023/04/29 02:11:08;;;;;;;8.23;4.80;;;17.40;88.10;;;;;;7386144;19;20261;-71
2023/04/29 02:13:40;;;;;;;6.47;4.53;;;17.40;88.30;;;;;;7383863;19;20071;-71
2023/04/29 02:16:09;;;;;;;10.18;5.05;;;17.40;88.30;;;;;;7383253;19;20007;-69
2023/04/29 02:18:38;;;;;;;7.57;5.03;;;17.30;88.40;;;;;;7383123;19;20030;-69
2023/04/29 02:21:07;;;;;;;6.00;4.78;;;17.30;89.00;;;;;;7384908;19;20034;-70
2023/04/29 02:23:36;;;;;;;11.35;4.88;;;17.30;89.10;;;;;;7406368;19;20481;-70
2023/04/29 02:26:08;;;;;;;12.70;4.63;;;17.20;88.60;;;;;;7393583;19;19999;-71
2023/04/29 02:28:39;;;;;;;8.48;5.28;;;17.20;88.10;;;;;;7387269;19;20018;-70
2023/04/29 02:31:11;;;;;;;9.88;5.00;;;17.20;87.90;;;;;;7383207;19;20011;-71
2023/04/29 02:33:40;;;;;;;18.55;5.68;;;17.20;88.20;;;;;;7384236;19;20011;-70
2023/04/29 02:36:08;;;;;;;7.43;4.63;;;17.20;88.00;;;;;;7381793;19;20002;-71
2023/04/29 02:38:37;;;;;;;7.72;5.15;;;17.20;87.90;;;;;;7403233;19;20007;-71
2023/04/29 02:41:06;;;;;;;9.43;4.65;;;17.20;88.40;;;;;;7383020;19;19999;-71
2023/04/29 02:43:34;;;;;;;7.28;5.00;;;17.10;88.50;;;;;;7383493;19;20010;-71
2023/04/29 02:46:06;;;;;;;6.10;4.68;;;17.10;88.80;;;;;;7383589;19;20027;-70
2023/04/29 02:48:35;;;;;;;7.10;4.70;;;17.10;88.90;;;;;;7383472;19;20023;-71
2023/04/29 02:51:04;;;;;;;11.02;4.60;;;17.10;88.80;;;;;;7381112;19;20007;-70
2023/04/29 02:53:32;;;;;;;10.15;5.25;;;17.10;87.90;;;;;;7402608;19;20019;-71
2023/04/29 02:56:01;;;;;;;6.60;5.07;;;17.00;87.90;;;;;;7382175;19;20010;-71
2023/04/29 02:58:30;;;;;;;6.88;4.97;;;17.00;87.60;;;;;;7382502;19;20288;-70
2023/04/29 03:00:58;;;;;;;7.35;5.25;;;17.00;87.90;;;;;;7382104;19;20006;-70
2023/04/29 03:03:30;;;;;;;17.25;5.80;;;16.90;87.70;;;;;;7382456;19;20042;-70
2023/04/29 03:05:58;;;;;;;6.82;4.68;;;16.90;88.00;;;;;;7402387;19;20014;-70
2023/04/29 03:08:27;;;;;;;6.93;4.93;;;16.90;87.90;;;;;;7405766;19;20007;-70
2023/04/29 03:10:56;;;;;;;9.15;4.88;;;16.90;87.80;;;;;;7382211;19;20066;-70
2023/04/29 03:13:24;;;;;;;9.20;4.85;;;16.90;87.90;;;;;;7382401;19;20002;-71
2023/04/29 03:15:53;;;;;;;9.90;5.07;;;16.90;88.00;;;;;;7382434;19;20066;-70
2023/04/29 03:18:22;;;;;;;10.00;4.75;;;16.90;88.20;;;;;;7383012;19;20010;-70
2023/04/29 03:20:53;;;;;;;7.75;4.40;;;16.90;88.10;;;;;;7401485;19;20006;-71
2023/04/29 03:23:22;;;;;;;7.80;4.93;;;16.90;87.90;;;;;;7381542;19;20066;-71
2023/04/29 03:25:51;;;;;;;6.25;4.93;;;16.80;87.70;;;;;;7381607;19;20010;-70
2023/04/29 03:28:20;;;;;;;11.25;4.95;;;16.80;87.10;;;;;;7382083;19;20003;-70
2023/04/29 03:30:49;;;;;;;9.48;5.03;;;16.80;87.00;;;;;;7381864;19;20086;-69
2023/04/29 03:33:18;;;;;;;7.53;5.10;;;16.80;87.00;;;;;;7382256;19;20024;-70
2023/04/29 03:35:47;;;;;;;11.70;5.47;;;16.70;87.90;;;;;;7401650;19;20007;-70
2023/04/29 03:38:18;;;;;;;11.50;5.10;;;16.70;87.70;;;;;;7381417;19;20012;-70
2023/04/29 03:40:47;;;;;;;;;;;16.60;87.60;;;;;;7382767;19;20023;-70
2023/04/29 03:43:15;;;;;;;9.60;4.78;;;16.70;87.70;;;;;;7381177;19;19967;-70
2023/04/29 03:45:44;;;;;;;7.40;4.85;;;16.60;87.60;;;;;;7382301;19;20011;-69
2023/04/29 03:48:13;;;;;;;10.70;5.20;;;16.60;87.50;;;;;;7382160;19;20023;-70
2023/04/29 03:50:42;;;;;;;7.50;5.13;;;16.60;87.90;;;;;;7403577;19;20017;-69
2023/04/29 03:53:11;;;;;;;8.70;5.18;;;16.60;87.50;;;;;;7381298;19;20268;-70
2023/04/29 03:55:42;;;;;;;16.23;5.63;;;16.50;87.50;;;;;;7381590;19;20007;-69
2023/04/29 03:58:11;;;;;;;10.27;5.45;;;16.50;87.40;;;;;;7381564;19;20366;-70
2023/04/29 04:00:39;;;;;;;8.13;5.28;;;16.50;87.60;;;;;;7380332;19;20074;-70
2023/04/29 04:03:09;;;;;;;6.38;4.90;;;16.50;87.90;;;;;;7380734;19;20007;-69
2023/04/29 04:05:38;;;;;;;17.55;5.10;;;16.60;88.60;;;;;;7400837;19;20007;-69
2023/04/29 04:08:07;;;;;;;6.78;4.80;;;16.60;88.90;;;;;;7380902;19;20016;-70
2023/04/29 04:10:38;;;;;;;8.38;4.38;;;16.60;87.80;;;;;;7381217;19;20288;-69
2023/04/29 04:13:09;;;;;;;11.25;5.05;;;16.70;87.90;;;;;;7381591;19;20075;-69
2023/04/29 04:15:38;;;;;;;15.13;5.07;;;16.70;87.70;;;;;;7381009;19;20028;-69
2023/04/29 04:18:07;;;;;;;9.50;4.53;;;16.70;87.70;;;;;;7379290;19;20066;-69
2023/04/29 04:20:38;;;;;;;8.45;4.85;;;16.80;87.90;;;;;;7401727;19;20023;-69
2023/04/29 04:23:07;;;;;;;9.70;4.50;;;16.80;88.20;;;;;;7380002;19;20326;-69
2023/04/29 04:25:36;;;;;;;9.00;4.70;;;16.80;88.00;;;;;;7380855;19;20007;-69
2023/04/29 04:28:05;;;;;;;8.98;4.60;;;16.80;88.30;;;;;;7379956;19;20281;-69
2023/04/29 04:30:37;;;;;;;10.57;4.93;;;16.80;88.70;;;;;;7379206;19;20055;-70
2023/04/29 04:33:06;;;;;;;15.77;4.78;;;16.90;88.90;;;;;;7385501;19;19999;-70
2023/04/29 04:35:35;;;;;;;10.68;5.43;;;16.90;89.70;;;;;;7408646;19;20409;-70
2023/04/29 04:38:04;;;;;;;12.32;8.73;;;16.90;89.10;;;;;;7386331;19;20023;-70
2023/04/29 04:40:33;;;;;;;12.02;6.45;;;16.90;89.70;;;;;;7387631;19;20234;-70
2023/04/29 04:43:01;;;;;;;14.25;7.55;;;16.90;90.00;;;;;;7390126;19;20002;-70
2023/04/29 04:45:31;;;;;;;19.63;8.38;;;17.00;90.00;;;;;;7389488;19;20016;-70
2023/04/29 04:48:02;;;;;;;20.35;10.05;;;17.00;90.10;;;;;;7398883;19;20025;-70
2023/04/29 04:50:31;;;;;;;20.35;10.93;;;16.90;90.10;;;;;;7408499;19;20252;-70
2023/04/29 04:53:00;;;;;;;15.60;9.75;;;16.90;90.40;;;;;;7386178;19;20361;-70
2023/04/29 04:55:28;;;;;;;16.85;9.40;;;16.90;90.60;;;;;;7388594;19;20020;-70
2023/04/29 04:57:57;;;;;;;13.93;10.00;;;17.00;90.70;;;;;;7387321;19;20226;-70
2023/04/29 05:00:26;;;;;;;21.35;12.32;;;17.00;90.70;;;;;;7388918;19;20007;-70
2023/04/29 05:02:54;;;;;;;22.75;13.88;;;17.00;90.70;;;;;;7410224;19;20059;-71
2023/04/29 05:05:26;;;;;;;23.77;14.43;;;16.90;90.80;;;;;;7387629;19;20026;-70
2023/04/29 05:07:54;;;;;;;21.60;14.32;;;16.80;90.80;;;;;;7387144;19;20364;-70
2023/04/29 05:10:25;;;;;;;24.05;15.25;;;16.70;91.10;;;;;;7386702;19;20006;-70
2023/04/29 05:12:54;;;;;;;24.52;15.25;;;16.50;91.40;;;;;;7385516;19;20002;-70
2023/04/29 05:15:23;;;;;;;26.85;15.40;;;16.50;91.50;;;;;;7387001;19;20003;-70
2023/04/29 05:17:51;;;;;;;24.05;14.02;;;16.50;91.60;;;;;;7405837;19;20009;-70
2023/04/29 05:20:20;;;;;;;23.33;14.93;;;16.50;91.70;;;;;;7385860;19;20007;-70
2023/04/29 05:22:51;;;;;;;28.13;15.48;;;16.50;91.60;;;;;;7385167;19;20020;-70
2023/04/29 05:25:20;;;;;;;22.55;15.00;;;16.40;91.60;;;;;;7385455;19;20007;-70
2023/04/29 05:27:49;;;;;;;26.13;15.05;;;16.40;91.80;;;;;;7385731;19;20401;-70
2023/04/29 05:30:18;;;;;;;27.15;15.98;;;16.50;91.80;;;;;;7385638;19;20006;-70
2023/04/29 05:32:47;;;;;;;30.33;16.52;;;16.40;91.80;;;;;;7405514;19;20007;-70
2023/04/29 05:35:16;;;;;;;27.63;16.85;;;16.20;92.00;;;;;;7385332;19;20376;-70
2023/04/29 05:37:44;;;;;;;23.77;15.55;;;16.20;92.10;;;;;;7383035;19;20010;-70
2023/04/29 05:40:16;;;;;;;24.55;16.15;;;16.30;92.10;;;;;;7385212;19;19999;-70
2023/04/29 05:42:45;;;;;;;;;;;16.20;92.10;;;;;;7386012;19;20011;-70
2023/04/29 05:45:14;;;;;;;24.27;15.48;;;16.30;92.20;;;;;;7383689;19;19910;-70
2023/04/29 05:47:43;;;;;;;25.42;16.30;;;16.30;92.10;;;;;;7405011;19;20006;-70
2023/04/29 05:50:13;;;;;;;26.08;16.63;;;16.40;92.20;;;;;;7384549;19;20020;-70
2023/04/29 05:52:41;;;;;;;26.35;16.55;;;16.30;92.10;;;;;;7384672;19;20034;-70
2023/04/29 05:55:11;;;;;;;28.42;17.63;;;16.20;92.20;;;;;;7385438;19;19999;-70
2023/04/29 05:57:42;;;;;;;27.67;17.25;;;16.30;92.20;;;;;;7383477;19;20034;-70
2023/04/29 06:00:12;;;;;;;26.60;17.05;;;16.30;92.20;;;;;;7384645;19;20357;-70
2023/04/29 06:02:41;;;;;;;28.75;17.38;;;16.30;92.20;;;;;;7406470;19;20007;-70
2023/04/29 06:05:11;;;;;;;35.88;18.15;;;16.10;92.40;;;;;;7383578;19;20006;-70
2023/04/29 06:07:41;;;;;;;30.25;17.35;;;16.10;92.50;;;;;;7383973;19;19999;-70
2023/04/29 06:10:10;;;;;;;30.23;17.67;;;16.00;92.60;;;;;;7384691;19;20019;-70
2023/04/29 06:12:45;;;;;;;25.50;16.52;;;16.00;92.80;;;;;;7382949;19;20006;-70
2023/04/29 06:15:14;;;;;;;28.65;15.65;;;16.00;92.80;;;;;;7382612;19;20354;-70
2023/04/29 06:17:43;;;;;;;30.38;15.98;;;16.10;92.70;;;;;;7404007;19;20054;-70
2023/04/29 06:20:12;;;;;;;23.60;15.13;;;16.10;92.60;;;;;;7383459;19;20013;-70
2023/04/29 06:22:41;;;;;;;26.85;15.68;;;16.10;92.80;;;;;;7382986;19;20094;-70
2023/04/29 06:25:11;;;;;;;27.10;15.70;;;16.30;92.80;;;;;;7384711;19;20059;-70
2023/04/29 06:27:42;;;;;;;24.40;16.00;;;16.20;92.60;;;;;;7384773;19;20019;-70
2023/04/29 06:30:12;;;;;;;28.02;15.27;;;16.30;92.90;;;;;;7383407;19;20390;-70
2023/04/29 06:32:40;;;;;;;31.17;16.17;;;16.40;92.60;;;;;;7404674;19;20003;-70
2023/04/29 06:35:10;;;;;;;22.60;14.68;;;16.40;92.50;;;;;;7383731;19;20014;-70
2023/04/29 06:37:38;;;;;;;23.02;14.48;;;16.40;92.40;;;;;;7382239;19;20287;-70
2023/04/29 06:40:09;;;;;;;25.13;15.40;;;16.50;92.40;;;;;;7384112;19;20144;-70
2023/04/29 06:42:38;;;;;;;28.50;16.20;;;16.60;92.40;;;;;;7382209;19;20007;-70
2023/04/29 06:45:10;;;;;;;34.55;16.20;;;16.60;92.10;;;;;;7381648;19;20382;-70
2023/04/29 06:47:39;;;;;;;25.42;14.68;;;16.60;92.00;;;;;;7406012;19;20058;-71
2023/04/29 06:50:09;;;;;;;26.67;16.10;;;16.60;92.10;;;;;;7384040;19;20003;-70
2023/04/29 06:52:37;;;;;;;26.73;15.35;;;16.70;92.20;;;;;;7384481;19;20003;-70
2023/04/29 06:55:07;;;;;;;22.85;14.43;;;16.60;92.10;;;;;;7381904;19;20023;-70
2023/04/29 06:57:36;;;;;;;24.50;15.50;;;16.70;92.10;;;;;;7382737;19;20287;-70
2023/04/29 07:00:05;;;;;;;23.35;14.13;;;16.70;92.10;;;;;;7381726;19;20007;-70
2023/04/29 07:02:37;;;;;;;32.60;17.65;;;16.80;92.10;;;;;;7408340;19;19998;-70
2023/04/29 07:05:07;;;;;;;31.13;16.98;;;16.80;91.90;;;;;;7386744;19;20006;-70
2023/04/29 07:07:35;;;;;;;27.77;15.88;;;16.70;91.90;;;;;;7382501;19;20067;-70
2023/04/29 07:10:04;;;;;;;27.70;16.30;;;16.70;92.00;;;;;;7382349;19;20018;-71
2023/04/29 07:12:33;;;;;;;28.77;17.02;;;16.80;92.10;;;;;;7382744;19;20003;-70
2023/04/29 07:15:01;;;;;;;25.48;16.40;;;16.80;92.10;;;;;;7382404;19;20027;-70
2023/04/29 07:17:32;;;;;;;28.45;15.70;;;16.90;91.90;;;;;;7402019;19;20062;-70
2023/04/29 07:20:03;;;;;;;25.35;15.88;;;16.90;92.00;;;;;;7382423;19;20006;-70
2023/04/29 07:22:32;;;;;;;30.20;16.88;;;16.90;92.00;;;;;;7381829;19;20275;-71
2023/04/29 07:25:00;;;;;;;30.05;17.10;;;17.00;91.80;;;;;;7382627;19;20385;-70
2023/04/29 07:27:29;;;;;;;33.63;17.42;;;16.90;91.80;;;;;;7381108;19;20394;-70
2023/04/29 07:29:58;;;;;;;28.15;16.88;;;16.90;91.70;;;;;;7403442;19;20023;-70
2023/04/29 07:32:26;;;;;;;28.95;16.17;;;16.90;92.00;;;;;;7381746;19;20350;-70
2023/04/29 07:34:56;;;;;;;26.50;16.65;;;17.00;92.00;;;;;;7381154;19;20015;-70
2023/04/29 07:37:27;;;;;;;31.17;16.17;;;17.00;92.10;;;;;;7381784;19;20408;-70
2023/04/29 07:39:56;;;;;;;31.15;15.68;;;17.10;92.00;;;;;;7381944;19;20390;-70
2023/04/29 07:42:24;;;;;;;30.48;16.58;;;17.20;91.80;;;;;;7381960;19;20068;-70
2023/04/29 07:44:53;;;;;;;27.77;16.73;;;17.20;91.60;;;;;;7403274;19;20015;-70
2023/04/29 07:47:22;;;;;;;27.88;16.27;;;17.10;91.60;;;;;;7381499;19;20032;-70
2023/04/29 07:49:51;;;;;;;28.67;14.57;;;17.20;91.60;;;;;;7381152;19;20011;-70
2023/04/29 07:52:20;;;;;;;25.63;14.57;;;17.10;91.60;;;;;;7381658;19;20062;-70
2023/04/29 07:54:52;;;;;;;25.63;14.95;;;16.90;91.70;;;;;;7382395;19;20014;-70
2023/04/29 07:57:20;;;;;;;26.20;14.48;;;16.90;91.80;;;;;;7380429;19;20027;-70
2023/04/29 07:59:52;;;;;;;33.30;16.05;;;16.90;91.80;;;;;;7401591;19;20011;-70
2023/04/29 08:02:21;;;;;;;29.52;16.85;;;16.90;91.60;;;;;;7380901;19;20015;-70
2023/04/29 08:04:49;;;;;;;27.83;15.45;;;16.90;91.70;;;;;;7379910;19;20390;-70
2023/04/29 08:07:18;;;;;;;28.77;16.15;;;17.00;91.70;;;;;;7382737;19;20003;-70
2023/04/29 08:09:47;;;;;;;39.25;17.10;;;17.10;91.80;;;;;;7386600;19;19998;-70
2023/04/29 08:12:18;;;;;;;35.65;18.70;;;17.10;91.80;;;;;;7385999;19;20010;-70
2023/04/29 08:14:47;;;;;;;35.50;18.08;;;17.10;91.60;;;;;;7407337;19;20007;-70
2023/04/29 08:17:15;;;;;;;40.15;19.00;;;17.30;91.70;;;;;;7387285;19;20066;-70
2023/04/29 08:19:44;;;;;;;34.72;17.60;;;17.20;91.50;;;;;;7387129;19;20002;-70
2023/04/29 08:22:13;;;;;;;36.47;18.42;;;17.10;91.60;;;;;;7386801;19;20007;-70
2023/04/29 08:24:42;;;;;;;32.63;18.20;;;17.20;91.70;;;;;;7388363;19;20006;-70
2023/04/29 08:27:11;;;;;;;36.92;18.55;;;17.20;91.70;;;;;;7384690;19;20357;-70
2023/04/29 08:29:42;;;;;;;39.72;19.52;;;17.30;91.80;;;;;;7409281;19;20078;-70
2023/04/29 08:32:10;;;;;;;41.35;20.33;;;17.30;91.80;;;;;;7387496;19;20006;-70
2023/04/29 08:34:40;;;;;;;46.10;23.65;;;17.40;91.70;;;;;;7387581;19;20062;-70
2023/04/29 08:37:09;;;;;;;47.97;24.67;;;17.40;91.50;;;;;;7387817;19;20003;-71
2023/04/29 08:39:38;;;;;;;51.88;26.58;;;17.30;91.30;;;;;;7386510;19;20003;-70
2023/04/29 08:42:10;;;;;;;51.00;25.70;;;17.20;91.40;;;;;;7387738;19;20015;-70
2023/04/29 08:44:39;;;;;;;48.15;25.45;;;16.90;91.70;;;;;;7407808;19;20011;-70
2023/04/29 08:47:12;;;;;;;50.15;25.75;;;17.00;91.80;;;;;;7386906;19;20010;-70
2023/04/29 08:49:43;;;;;;;49.42;26.00;;;17.00;91.70;;;;;;7386447;19;20432;-70
2023/04/29 08:52:11;;;;;;;50.85;26.75;;;17.10;91.70;;;;;;7387240;19;20433;-71
2023/04/29 08:54:40;;;;;;;50.05;25.83;;;17.10;91.80;;;;;;7385852;19;19998;-70
2023/04/29 08:57:12;;;;;;;49.03;26.38;;;17.20;91.90;;;;;;7387108;19;20010;-70
2023/04/29 08:59:41;;;;;;;56.75;30.02;;;17.30;91.60;;;;;;7409099;19;20007;-69
2023/04/29 09:02:20;;;;;;;55.80;28.90;;;17.00;91.40;;;;;;7386820;19;20006;-70
2023/04/29 09:04:53;;;;;;;54.38;28.30;;;17.10;91.80;;;;;;7385769;19;19999;-70
2023/04/29 09:07:22;;;;;;;52.83;26.67;;;17.20;91.80;;;;;;7386766;19;20023;-70
2023/04/29 09:09:53;;;;;;;57.33;28.23;;;17.30;91.80;;;;;;7385510;19;20003;-70
2023/04/29 09:12:21;;;;;;;52.70;28.07;;;17.40;91.90;;;;;;7386965;19;20419;-69
2023/04/29 09:14:50;;;;;;;54.88;28.20;;;17.50;91.70;;;;;;7405416;19;20058;-70
2023/04/29 09:17:21;;;;;;;58.05;27.90;;;17.50;91.20;;;;;;7385891;19;20276;-70
2023/04/29 09:19:50;;;;;;;55.20;28.38;;;17.60;91.20;;;;;;7391921;19;20369;-70
2023/04/29 09:22:18;;;;;;;57.53;27.65;;;17.60;91.10;;;;;;7391185;19;20031;-69
2023/04/29 09:24:47;;;;;;;51.95;26.98;;;17.60;90.90;;;;;;7386352;19;20064;-70
2023/04/29 09:27:29;;;;;;;52.83;26.67;;;17.70;90.90;;;;;;7384129;19;20042;-70
2023/04/29 09:30:02;;;;;;;50.53;25.75;;;17.70;90.80;;;;;;7407545;19;20006;-71
2023/04/29 09:32:34;;;;;;;45.60;24.60;;;17.70;90.70;;;;;;7385202;19;20007;-70
2023/04/29 09:35:23;;;;;;;;;;;17.70;90.40;;;;;;7385764;19;20003;-70
2023/04/29 09:37:53;;;;;;;46.53;23.50;;;17.80;90.40;;;;;;7384448;19;20291;-70
2023/04/29 09:40:32;;;;;;;49.10;23.55;;;17.60;90.30;;;;;;7385293;19;20003;-70
2023/04/29 09:43:01;;;;;;;45.88;23.25;;;17.70;90.60;;;;;;7383766;19;19999;-70
2023/04/29 09:45:37;;;;;;;45.17;23.50;;;17.80;90.40;;;;;;7383875;19;20016;-70
2023/04/29 09:48:09;;;;;;;52.53;25.10;;;17.80;90.20;;;;;;7382499;19;20078;-70
2023/04/29 09:50:38;;;;;;;53.95;26.00;;;17.90;90.20;;;;;;7406165;19;20025;-70
2023/04/29 09:53:08;;;;;;;50.85;24.73;;;17.90;90.20;;;;;;7384122;19;20011;-70
2023/04/29 09:55:37;;;;;;;52.15;25.95;;;18.00;90.20;;;;;;7385025;19;20011;-70
2023/04/29 09:58:06;;;;;;;50.20;24.63;;;18.00;90.00;;;;;;7384259;19;20090;-70
2023/04/29 10:00:36;;;;;;;46.30;25.15;;;18.00;89.60;;;;;;7383077;19;20006;-72
2023/04/29 10:03:09;;;;;;;56.08;27.45;;;18.10;89.70;;;;;;7384184;19;20071;-70
2023/04/29 10:05:38;;;;;;;60.05;28.27;;;18.00;89.10;;;;;;7405920;19;20011;-70
2023/04/29 10:08:07;;;;;;;57.33;28.48;;;18.00;89.00;;;;;;7383571;19;20066;-69
2023/04/29 10:10:36;;;;;;;54.38;27.88;;;18.10;89.60;;;;;;7383188;19;20027;-69
2023/04/29 10:13:06;;;;;;;49.35;27.80;;;18.10;89.30;;;;;;7382618;19;20024;-69
2023/04/29 10:15:39;;;;;;;51.58;27.23;;;18.10;88.80;;;;;;7383043;19;20030;-70
2023/04/29 10:18:22;;;;;;;54.35;26.27;;;18.00;88.80;;;;;;7382364;19;20010;-70
2023/04/29 10:20:53;;;;;;;50.35;26.38;;;18.00;88.20;;;;;;7404643;19;20031;-70
2023/04/29 10:23:24;;;;;;;54.17;26.20;;;18.10;88.20;;;;;;7383268;19;20023;-70
2023/04/29 10:25:54;;;;;;;48.47;25.50;;;18.30;88.30;;;;;;7383952;19;19999;-70
2023/04/29 10:28:25;;;;;;;48.35;25.45;;;18.40;88.00;;;;;;7382975;19;20016;-71
2023/04/29 10:30:56;;;;;;;46.70;24.63;;;18.40;86.90;;;;;;7376079;19;20020;-71
2023/04/29 10:33:29;;;;;;;48.08;26.85;;;18.60;86.80;;;;;;7385323;19;20011;-71
2023/04/29 10:35:57;;;;;;;47.78;24.30;;;18.60;85.80;;;;;;7409351;19;20007;-71
2023/04/29 10:38:30;;;;;;;48.75;24.92;;;18.50;85.80;;;;;;7381840;19;20389;-70
2023/04/29 10:41:04;;;;;;;43.00;24.23;;;18.50;86.50;;;;;;7384308;19;20011;-71
2023/04/29 10:43:33;;;;;;;48.50;25.63;;;18.60;87.00;;;;;;7383410;19;20003;-71
2023/04/29 10:46:20;;;;;;;46.75;25.38;;;18.70;86.50;;;;;;7383526;19;20007;-71
2023/04/29 10:48:54;;;;;;;45.33;24.00;;;18.70;86.80;;;;;;7382575;19;20027;-71
2023/04/29 10:51:34;;;;;;;46.40;24.90;;;18.80;85.80;;;;;;7383290;19;20014;-71
2023/04/29 10:54:04;;;;;;;45.90;24.75;;;18.70;84.50;;;;;;7404686;19;20011;-70
2023/04/29 10:56:42;;;;;;;55.53;24.10;;;18.90;84.90;;;;;;7382102;19;20002;-72
2023/04/29 10:59:15;;;;;;;44.42;24.58;;;18.90;85.20;;;;;;7380819;19;20669;-73
2023/04/29 11:01:49;;;;;;;40.20;22.85;;;19.00;84.60;;;;;;7382535;19;20019;-72
2023/04/29 11:04:23;;;;;;;40.55;22.35;;;19.10;84.70;;;;;;7383241;19;20006;-72
2023/04/29 11:06:56;;;;;;;40.13;21.90;;;19.10;84.60;;;;;;7383955;19;20072;-72
2023/04/29 11:09:28;;;;;;;41.45;23.98;;;19.20;84.90;;;;;;7382805;19;20235;-72
2023/04/29 11:12:04;;;;;;;43.35;23.63;;;19.20;84.30;;;;;;7402497;19;20122;-72
2023/04/29 11:14:35;;;;;;;45.38;23.58;;;19.20;84.70;;;;;;7381938;19;20098;-70
2023/04/29 11:17:05;;;;;;;41.38;23.63;;;19.20;84.30;;;;;;7381200;19;20384;-71
2023/04/29 11:19:38;;;;;;;41.20;22.58;;;19.20;82.70;;;;;;7381948;19;20380;-71
2023/04/29 11:22:29;;;;;;;40.28;22.92;;;19.10;81.90;;;;;;7382254;19;20019;-71
2023/04/29 11:25:01;;;;;;;44.58;22.20;;;19.10;82.80;;;;;;7381272;19;20219;-72
2023/04/29 11:27:34;;;;;;;41.03;21.60;;;19.20;83.80;;;;;;7382708;19;20021;-71
2023/04/29 11:30:05;;;;;;;35.70;21.00;;;19.20;82.80;;;;;;7403867;19;20071;-71
2023/04/29 11:32:35;;;;;;;36.53;21.52;;;19.20;82.60;;;;;;7382042;19;20058;-72
2023/04/29 11:35:14;;;;;;;41.25;21.58;;;19.20;82.70;;;;;;7382641;19;20006;-70
2023/04/29 11:37:45;;;;;;;43.72;23.15;;;19.20;83.00;;;;;;7387976;19;20006;-70
2023/04/29 11:40:15;;;;;;;46.17;23.97;;;19.20;83.10;;;;;;7383658;19;20003;-70
2023/04/29 11:42:46;;;;;;;42.97;24.65;;;19.10;83.70;;;;;;7378412;19;20299;-70
2023/04/29 11:45:16;;;;;;;41.28;23.45;;;19.10;84.10;;;;;;7381396;19;20376;-70
2023/04/29 11:47:46;;;;;;;44.33;24.15;;;19.10;84.00;;;;;;7402723;19;20003;-70
2023/04/29 11:50:19;;;;;;;48.22;24.25;;;19.10;84.60;;;;;;7380300;19;20067;-71
2023/04/29 11:52:49;;;;;;;41.15;22.95;;;18.90;82.30;;;;;;7381078;19;20063;-71
2023/04/29 11:55:17;;;;;;;40.55;22.17;;;19.00;82.10;;;;;;7381206;19;20092;-71
2023/04/29 11:57:46;;;;;;;47.08;23.27;;;19.10;82.80;;;;;;7380856;19;20019;-71
2023/04/29 12:00:16;;;;;;;40.63;23.15;;;19.20;82.70;;;;;;7378473;19;20015;-71
2023/04/29 12:02:47;;;;;;;44.85;23.33;;;19.30;81.90;;;;;;7401991;19;20019;-71
2023/04/29 12:05:18;;;;;;;42.70;22.38;;;19.30;81.60;;;;;;7380723;19;20174;-71
2023/04/29 12:07:47;;;;;;;35.13;20.08;;;19.40;82.40;;;;;;7380283;19;20240;-71
2023/04/29 12:10:15;;;;;;;38.03;20.83;;;19.50;81.60;;;;;;7380433;19;20003;-71
2023/04/29 12:12:45;;;;;;;38.70;20.77;;;19.50;80.20;;;;;;7380904;19;19999;-71
2023/04/29 12:15:15;;;;;;;40.13;22.17;;;19.60;80.40;;;;;;7384753;19;20350;-71
2023/04/29 12:17:45;;;;;;;46.78;21.10;;;19.30;79.30;;;;;;7401307;19;20011;-71
2023/04/29 12:20:14;;;;;;;40.65;21.30;;;19.40;79.50;;;;;;7378394;19;20007;-71
2023/04/29 12:22:46;;;;;;;40.30;20.30;;;19.40;79.60;;;;;;7379379;19;20023;-71
2023/04/29 12:25:15;;;;;;;31.77;19.00;;;19.40;79.00;;;;;;7378763;19;20014;-71
2023/04/29 12:27:44;;;;;;;30.30;18.35;;;19.50;78.40;;;;;;7381323;19;20025;-70
2023/04/29 12:30:13;;;;;;;33.45;18.15;;;19.50;78.50;;;;;;7396860;19;20026;-71
2023/04/29 12:32:42;;;;;;;32.85;18.20;;;19.50;77.90;;;;;;7399669;19;20003;-71
2023/04/29 12:35:19;;;;;;;34.03;17.88;;;19.60;78.20;;;;;;7379980;19;20374;-71
2023/04/29 12:37:53;;;;;;;30.13;16.90;;;19.50;77.40;;;;;;7380385;19;20003;-71
2023/04/29 12:40:22;;;;;;;30.15;16.17;;;19.30;77.40;;;;;;7380273;19;20006;-71
2023/04/29 12:42:51;;;;;;;28.17;16.42;;;19.40;78.50;;;;;;7380137;19;20058;-71
2023/04/29 12:45:30;;;;;;;30.85;17.08;;;19.60;78.90;;;;;;7379701;19;19998;-71
2023/04/29 12:48:00;;;;;;;41.88;18.77;;;19.80;77.60;;;;;;7398485;19;20010;-71
2023/04/29 12:50:34;;;;;;;27.05;15.25;;;19.80;77.10;;;;;;7378817;19;20067;-71